createdAt,value
2019-05-21T00:01:04.095Z,48.24
2019-05-21T00:03:35.729Z,48.29
2019-05-21T00:06:08.415Z,48.23
2019-05-21T00:08:39.669Z,48.39
2019-05-21T00:11:10.919Z,48.33
2019-05-21T00:13:42.003Z,48.21
2019-05-21T00:16:13.201Z,48.21
2019-05-21T00:18:44.291Z,48.31
2019-05-21T00:21:15.363Z,48.12
2019-05-21T00:23:46.742Z,48.17
2019-05-21T00:26:18.300Z,48.10
2019-05-21T00:29:26.209Z,48.35
2019-05-21T00:32:35.151Z,48.29
2019-05-21T00:35:47.563Z,48.16
2019-05-21T00:38:55.679Z,48.01
2019-05-21T00:42:03.488Z,48.06
2019-05-21T00:44:38.141Z,48.21
2019-05-21T00:47:09.674Z,48.23
2019-05-21T00:49:40.615Z,48.21
2019-05-21T00:52:12.272Z,48.38
2019-05-21T00:54:43.623Z,48.49
2019-05-21T00:57:14.773Z,48.68
2019-05-21T00:59:46.635Z,48.79
2019-05-21T01:02:17.992Z,48.95
2019-05-21T01:05:00.114Z,49.14
2019-05-21T01:07:23.044Z,49.25
2019-05-21T01:09:54.601Z,49.37
2019-05-21T01:12:25.953Z,49.63
2019-05-21T01:14:57.408Z,49.82
2019-05-21T01:17:28.866Z,50.01
2019-05-21T01:20:00.621Z,50.26
2019-05-21T01:22:31.769Z,50.25
2019-05-21T01:25:03.225Z,50.37
2019-05-21T01:27:34.270Z,50.46
2019-05-21T01:30:06.546Z,50.43
2019-05-21T01:32:37.697Z,50.30
2019-05-21T01:35:17.020Z,50.19
2019-05-21T01:37:42.131Z,49.99
2019-05-21T01:40:13.490Z,49.82
2019-05-21T01:42:44.838Z,49.46
2019-05-21T01:45:16.294Z,49.26
2019-05-21T01:47:47.644Z,49.17
2019-05-21T01:50:18.823Z,49.00
2019-05-21T01:52:50.362Z,48.94
2019-05-21T01:55:21.812Z,48.85
2019-05-21T01:57:53.055Z,48.79
2019-05-21T02:00:24.615Z,48.72
2019-05-21T02:02:56.175Z,48.68
2019-05-21T02:05:32.914Z,48.84
2019-05-21T02:08:01.019Z,48.92
2019-05-21T02:10:32.782Z,48.88
2019-05-21T02:13:03.926Z,48.87
2019-05-21T02:15:35.593Z,49.04
2019-05-21T02:18:07.356Z,48.78
2019-05-21T02:20:39.221Z,48.82
2019-05-21T02:23:10.569Z,48.79
2019-05-21T02:25:42.165Z,48.96
2019-05-21T02:28:13.621Z,49.03
2019-05-21T02:30:44.729Z,48.68
2019-05-21T02:33:16.389Z,48.51
2019-05-21T02:35:54.099Z,48.39
2019-05-21T02:38:21.545Z,48.32
2019-05-21T02:40:53.819Z,48.40
2019-05-21T02:43:25.480Z,48.26
2019-05-21T02:45:56.620Z,48.28
2019-05-21T02:48:27.973Z,48.26
2019-05-21T02:50:59.427Z,48.24
2019-05-21T02:53:34.281Z,48.13
2019-05-21T02:56:03.787Z,47.99
2019-05-21T02:58:35.015Z,47.84
2019-05-21T03:01:08.220Z,47.56
2019-05-21T03:03:39.805Z,47.55
2019-05-21T03:06:14.308Z,47.62
2019-05-21T03:08:44.825Z,47.33
2019-05-21T03:11:16.397Z,47.29
2019-05-21T03:13:47.839Z,47.22
2019-05-21T03:16:19.201Z,47.14
2019-05-21T03:18:50.646Z,47.16
2019-05-21T03:21:21.796Z,47.11
2019-05-21T03:23:53.453Z,47.24
2019-05-21T03:26:24.707Z,47.15
2019-05-21T03:28:56.367Z,47.17
2019-05-21T03:31:27.932Z,47.02
2019-05-21T03:33:59.372Z,46.96
2019-05-21T03:36:33.926Z,46.86
2019-05-21T03:39:03.929Z,46.81
2019-05-21T03:41:35.375Z,46.75
2019-05-21T03:44:06.625Z,46.48
2019-05-21T03:46:38.096Z,46.25
2019-05-21T03:49:09.228Z,46.30
2019-05-21T03:51:40.275Z,46.33
2019-05-21T03:54:11.525Z,46.25
2019-05-21T03:56:42.670Z,46.30
2019-05-21T03:59:14.017Z,46.13
2019-05-21T04:01:45.480Z,45.75
2019-05-21T04:04:16.623Z,45.59
2019-05-21T04:06:51.941Z,45.69
2019-05-21T04:09:20.961Z,45.63
2019-05-21T04:11:53.398Z,45.24
2019-05-21T04:14:32.693Z,45.19
2019-05-21T04:17:08.538Z,45.33
2019-05-21T04:19:41.526Z,45.50
2019-05-21T04:22:15.947Z,45.24
2019-05-21T04:24:46.895Z,45.28
2019-05-21T04:27:17.968Z,45.58
2019-05-21T04:29:49.596Z,45.60
2019-05-21T04:32:21.053Z,45.50
2019-05-21T04:34:52.508Z,45.22
2019-05-21T04:37:23.960Z,45.25
2019-05-21T04:39:55.518Z,45.23
2019-05-21T04:42:27.077Z,45.00
2019-05-21T04:44:58.636Z,44.87
2019-05-21T04:47:30.306Z,44.76
2019-05-21T04:50:01.463Z,45.06
2019-05-21T04:52:32.890Z,45.21
2019-05-21T04:55:05.762Z,45.51
2019-05-21T04:57:37.499Z,45.60
2019-05-21T05:00:09.611Z,45.62
2019-05-21T05:02:40.965Z,45.34
2019-05-21T05:05:12.524Z,45.25
2019-05-21T05:07:44.175Z,45.41
2019-05-21T05:10:15.840Z,44.92
2019-05-21T05:12:47.389Z,44.04
2019-05-21T05:15:19.048Z,43.76
2019-05-21T05:17:50.521Z,43.83
2019-05-21T05:20:21.892Z,43.65
2019-05-21T05:22:53.079Z,43.21
2019-05-21T05:25:24.458Z,43.09
2019-05-21T05:27:55.713Z,42.86
2019-05-21T05:30:26.954Z,42.95
2019-05-21T05:32:58.362Z,42.93
2019-05-21T05:35:29.446Z,42.98
2019-05-21T05:38:00.494Z,42.72
2019-05-21T05:40:31.735Z,42.38
2019-05-21T05:43:03.193Z,41.84
2019-05-21T05:45:34.832Z,41.53
2019-05-21T05:48:06.304Z,40.50
2019-05-21T05:50:42.258Z,40.06
2019-05-21T05:53:13.611Z,39.81
2019-05-21T05:55:45.067Z,39.65
2019-05-21T05:58:16.313Z,39.46
2019-05-21T06:00:47.677Z,38.98
2019-05-21T06:03:18.838Z,38.06
2019-05-21T06:05:50.147Z,38.05
2019-05-21T06:08:21.723Z,38.05
2019-05-21T06:10:53.178Z,37.52
2019-05-21T06:13:24.219Z,36.76
2019-05-21T06:15:55.877Z,36.63
2019-05-21T06:18:27.333Z,36.34
2019-05-21T06:20:58.993Z,35.91
2019-05-21T06:23:30.653Z,35.06
2019-05-21T06:26:02.213Z,35.37
2019-05-21T06:28:33.355Z,34.75
2019-05-21T06:31:04.815Z,35.28
2019-05-21T06:33:37.185Z,35.36
2019-05-21T06:36:08.852Z,35.29
2019-05-21T06:38:40.399Z,35.19
2019-05-21T06:41:11.870Z,35.17
2019-05-21T06:43:43.109Z,35.29
2019-05-21T06:46:14.573Z,35.34
2019-05-21T06:48:45.818Z,35.78
2019-05-21T06:51:18.421Z,35.65
2019-05-21T06:53:50.068Z,36.19
2019-05-21T06:56:21.513Z,36.08
2019-05-21T06:58:52.762Z,36.45
2019-05-21T07:01:28.522Z,36.80
2019-05-21T07:03:57.515Z,36.79
2019-05-21T07:06:29.687Z,36.96
2019-05-21T07:09:01.144Z,37.28
2019-05-21T07:11:34.239Z,37.45
2019-05-21T07:14:06.001Z,37.28
2019-05-21T07:16:37.341Z,37.14
2019-05-21T07:19:08.606Z,37.04
2019-05-21T07:21:40.402Z,36.96
2019-05-21T07:24:11.343Z,36.78
2019-05-21T07:26:42.525Z,36.74
2019-05-21T07:29:14.478Z,36.72
2019-05-21T07:31:45.777Z,36.59
2019-05-21T07:34:16.913Z,36.42
2019-05-21T07:36:48.468Z,36.09
2019-05-21T07:39:19.372Z,36.58
2019-05-21T07:41:50.765Z,36.19
2019-05-21T07:44:21.811Z,36.04
2019-05-21T07:46:53.473Z,35.28
2019-05-21T07:49:24.829Z,35.11
2019-05-21T07:51:55.867Z,34.83
2019-05-21T07:54:28.166Z,34.32
2019-05-21T07:57:00.415Z,34.36
2019-05-21T07:59:31.766Z,34.25
2019-05-21T08:02:03.324Z,34.07
2019-05-21T08:04:34.835Z,33.51
2019-05-21T08:07:06.138Z,33.69
2019-05-21T08:09:37.376Z,33.38
2019-05-21T08:12:34.561Z,33.56
2019-05-21T08:14:41.613Z,33.04
2019-05-21T08:17:13.168Z,32.89
2019-05-21T08:19:44.213Z,32.61
2019-05-21T08:22:15.668Z,32.49
2019-05-21T08:24:46.924Z,32.30
2019-05-21T08:27:18.072Z,32.01
2019-05-21T08:29:49.624Z,32.27
2019-05-21T08:32:20.871Z,32.26
2019-05-21T08:34:52.220Z,32.00
2019-05-21T08:37:23.365Z,31.75
2019-05-21T08:39:54.301Z,31.77
2019-05-21T08:42:25.996Z,31.89
2019-05-21T08:44:57.315Z,31.81
2019-05-21T08:47:28.991Z,31.87
2019-05-21T08:50:00.324Z,32.20
2019-05-21T08:52:32.024Z,31.89
2019-05-21T08:55:05.188Z,32.02
2019-05-21T08:57:36.430Z,32.03
2019-05-21T09:00:09.156Z,32.65
2019-05-21T09:02:40.468Z,32.63
2019-05-21T09:05:11.841Z,32.56
2019-05-21T09:07:43.062Z,31.88
2019-05-21T09:10:14.617Z,32.12
2019-05-21T09:12:45.758Z,32.27
2019-05-21T09:15:17.113Z,32.23
2019-05-21T09:17:48.568Z,32.47
2019-05-21T09:20:19.923Z,32.89
2019-05-21T09:22:51.067Z,33.26
2019-05-21T09:25:22.423Z,33.65
2019-05-21T09:27:55.106Z,33.71
2019-05-21T09:30:27.999Z,34.12
2019-05-21T09:32:59.589Z,34.09
2019-05-21T09:35:30.693Z,34.32
2019-05-21T09:38:02.314Z,34.02
2019-05-21T09:40:33.395Z,34.12
2019-05-21T09:43:04.547Z,34.11
2019-05-21T09:45:35.995Z,34.18
2019-05-21T09:48:07.250Z,34.13
2019-05-21T09:50:38.501Z,34.10
2019-05-21T09:53:10.266Z,34.14
2019-05-21T09:59:50.859Z,34.18
2019-05-21T10:02:33.370Z,34.17
2019-05-21T10:05:06.288Z,33.64
2019-05-21T10:07:40.567Z,33.32
2019-05-21T10:10:11.430Z,32.92
2019-05-21T10:12:43.173Z,32.05
2019-05-21T10:15:14.222Z,31.53
2019-05-21T10:17:45.580Z,30.91
2019-05-21T10:20:17.243Z,29.92
2019-05-21T10:22:48.487Z,29.43
2019-05-21T10:25:19.731Z,29.76
2019-05-21T10:27:51.079Z,29.74
2019-05-21T10:30:22.541Z,29.67
2019-05-21T10:32:54.153Z,29.73
2019-05-21T10:35:25.745Z,29.77
2019-05-21T10:37:57.101Z,29.82
2019-05-21T10:40:28.664Z,30.06
2019-05-21T10:43:00.317Z,30.22
2019-05-21T10:45:31.564Z,30.55
2019-05-21T10:48:03.131Z,30.69
2019-05-21T10:50:34.368Z,30.90
2019-05-21T10:53:05.515Z,31.43
2019-05-21T10:55:36.562Z,31.81
2019-05-21T10:58:08.221Z,31.85
2019-05-21T11:00:39.567Z,32.32
2019-05-21T11:03:12.281Z,32.52
2019-05-21T11:05:45.235Z,32.76
2019-05-21T11:08:25.105Z,34.03
2019-05-21T11:10:49.780Z,33.27
2019-05-21T11:13:22.732Z,33.23
2019-05-21T11:15:54.739Z,32.51
2019-05-21T11:18:26.086Z,31.83
2019-05-21T11:20:57.433Z,30.94
2019-05-21T11:23:28.691Z,30.14
2019-05-21T11:25:59.949Z,29.92
2019-05-21T11:28:31.293Z,29.93
2019-05-21T11:31:02.993Z,30.25
2019-05-21T11:33:34.297Z,29.84
2019-05-21T11:36:05.757Z,28.79
2019-05-21T11:38:39.981Z,28.08
2019-05-21T11:41:10.299Z,27.83
2019-05-21T11:43:41.766Z,27.95
2019-05-21T11:46:13.299Z,28.40
2019-05-21T11:48:44.855Z,27.48
2019-05-21T11:51:16.486Z,27.26
2019-05-21T11:53:47.853Z,27.02
2019-05-21T11:56:19.407Z,27.60
2019-05-21T11:58:50.963Z,27.32
2019-05-21T12:01:22.098Z,26.96
2019-05-21T12:03:53.345Z,26.34
2019-05-21T12:06:24.603Z,26.01
2019-05-21T12:08:57.319Z,26.58
2019-05-21T12:11:28.733Z,26.13
2019-05-21T12:14:00.499Z,26.04
2019-05-21T12:16:31.957Z,25.59
2019-05-21T12:19:03.186Z,25.45
2019-05-21T12:21:34.436Z,25.78
2019-05-21T12:24:06.164Z,26.29
2019-05-21T12:26:37.741Z,26.84
2019-05-21T12:29:09.001Z,27.17
2019-05-21T12:31:40.667Z,27.32
2019-05-21T12:34:12.105Z,27.98
2019-05-21T12:36:43.760Z,28.27
2019-05-21T12:39:15.219Z,28.74
2019-05-21T12:41:46.779Z,28.73
2019-05-21T12:44:18.629Z,29.41
2019-05-21T12:46:50.179Z,29.43
2019-05-21T12:49:22.057Z,29.40
2019-05-21T12:51:53.086Z,29.06
2019-05-21T12:54:24.336Z,29.20
2019-05-21T12:56:55.891Z,28.73
2019-05-21T12:59:27.145Z,28.75
2019-05-21T13:01:58.796Z,29.02
2019-05-21T13:04:30.249Z,29.25
2019-05-21T13:07:01.407Z,29.17
2019-05-21T13:09:33.458Z,29.76
2019-05-21T13:12:04.668Z,29.39
2019-05-21T13:14:36.797Z,28.79
2019-05-21T13:17:08.549Z,28.42
2019-05-21T13:19:39.893Z,27.96
2019-05-21T13:22:11.546Z,27.87
2019-05-21T13:24:42.588Z,28.13
2019-05-21T13:27:13.984Z,28.02
2019-05-21T13:29:45.301Z,27.62
2019-05-21T13:32:16.645Z,27.48
2019-05-21T13:34:48.363Z,27.22
2019-05-21T13:37:19.675Z,27.03
2019-05-21T13:39:51.431Z,26.89
2019-05-21T13:42:22.649Z,26.28
2019-05-21T13:44:53.952Z,26.58
2019-05-21T13:47:25.557Z,26.69
2019-05-21T13:49:57.005Z,26.96
2019-05-21T13:52:28.661Z,26.96
2019-05-21T13:55:01.206Z,26.88
2019-05-21T13:57:33.004Z,26.82
2019-05-21T14:00:10.322Z,26.23
2019-05-21T14:02:41.735Z,25.81
2019-05-21T14:05:13.214Z,25.37
2019-05-21T14:07:44.739Z,24.86
2019-05-21T14:10:20.689Z,24.98
2019-05-21T14:12:51.158Z,24.94
2019-05-21T14:15:24.057Z,25.66
2019-05-21T14:17:57.809Z,26.46
2019-05-21T14:20:29.632Z,27.29
2019-05-21T14:23:01.534Z,27.42
2019-05-21T14:25:33.181Z,28.27
2019-05-21T14:28:04.701Z,29.45
2019-05-21T14:30:36.454Z,30.80
2019-05-21T14:33:07.839Z,31.56
2019-05-21T14:35:39.144Z,32.32
2019-05-21T14:38:10.638Z,32.54
2019-05-21T14:40:42.023Z,32.51
2019-05-21T14:43:13.434Z,31.57
2019-05-21T14:45:45.289Z,30.55
2019-05-21T14:48:20.476Z,29.90
2019-05-21T14:50:52.806Z,29.94
2019-05-21T14:53:24.051Z,29.46
2019-05-21T14:55:55.393Z,29.42
2019-05-21T14:58:29.146Z,29.41
2019-05-21T15:01:00.957Z,28.87
2019-05-21T15:03:33.250Z,29.16
2019-05-21T15:06:04.498Z,30.00
2019-05-21T15:08:36.134Z,30.44
2019-05-21T15:11:07.686Z,30.76
2019-05-21T15:13:39.044Z,31.01
2019-05-21T15:16:10.581Z,31.31
2019-05-21T15:18:41.939Z,31.18
2019-05-21T15:21:15.016Z,30.23
2019-05-21T15:23:47.927Z,29.87
2019-05-21T15:26:19.461Z,29.51
2019-05-21T15:28:51.131Z,29.32
2019-05-21T15:31:23.633Z,28.70
2019-05-21T15:33:54.833Z,27.96
2019-05-21T15:36:26.599Z,27.38
2019-05-21T15:38:57.990Z,26.83
2019-05-21T15:41:29.901Z,26.38
2019-05-21T15:44:01.459Z,26.06
2019-05-21T15:46:47.084Z,26.17
2019-05-21T15:49:05.946Z,25.96
2019-05-21T15:51:37.254Z,26.57
2019-05-21T15:54:08.589Z,26.90
2019-05-21T15:56:39.742Z,27.10
2019-05-21T15:59:10.868Z,26.93
2019-05-21T16:01:42.318Z,27.21
2019-05-21T16:04:16.397Z,27.46
2019-05-21T16:06:46.553Z,29.05
2019-05-21T16:09:18.309Z,30.39
2019-05-21T16:11:49.667Z,31.80
2019-05-21T16:14:21.516Z,33.25
2019-05-21T16:16:53.069Z,34.71
2019-05-21T16:19:24.218Z,36.41
2019-05-21T16:21:55.762Z,37.66
2019-05-21T16:24:27.627Z,38.92
2019-05-21T16:26:59.184Z,39.88
2019-05-21T16:29:30.540Z,40.75
2019-05-21T16:32:02.093Z,41.37
2019-05-21T16:34:33.837Z,42.19
2019-05-21T16:37:05.096Z,43.05
2019-05-21T16:39:36.736Z,43.60
2019-05-21T16:42:07.882Z,44.14
2019-05-21T16:44:39.555Z,44.38
2019-05-21T16:47:10.781Z,44.48
2019-05-21T16:49:42.438Z,44.93
2019-05-21T16:52:14.096Z,45.52
2019-05-21T16:54:45.984Z,45.50
2019-05-21T16:57:17.213Z,45.35
2019-05-21T16:59:48.665Z,45.62
2019-05-21T17:02:19.931Z,46.36
2019-05-21T17:04:51.457Z,47.00
2019-05-21T17:07:23.017Z,47.53
2019-05-21T17:09:54.442Z,48.22
2019-05-21T17:12:26.225Z,48.62
2019-05-21T17:14:58.920Z,49.20
2019-05-21T17:17:30.253Z,49.80
2019-05-21T17:20:02.725Z,50.12
2019-05-21T17:22:34.183Z,50.75
2019-05-21T17:25:07.067Z,51.09
2019-05-21T17:27:38.420Z,51.66
2019-05-21T17:30:10.078Z,52.16
2019-05-21T17:32:41.413Z,52.74
2019-05-21T17:35:12.869Z,53.05
2019-05-21T17:37:45.558Z,53.43
2019-05-21T17:40:17.436Z,53.61
2019-05-21T17:42:49.159Z,53.78
2019-05-21T17:45:20.993Z,53.96
2019-05-21T17:47:52.110Z,54.16
2019-05-21T17:50:23.517Z,54.18
2019-05-21T17:52:55.171Z,54.37
2019-05-21T17:55:26.624Z,54.49
2019-05-21T17:57:58.269Z,54.33
2019-05-21T18:00:40.593Z,54.51
2019-05-21T18:03:12.994Z,54.52
2019-05-21T18:05:45.538Z,54.61
2019-05-21T18:08:17.349Z,54.52
2019-05-21T18:10:50.872Z,54.83
2019-05-21T18:13:23.165Z,55.07
2019-05-21T18:15:55.532Z,55.24
2019-05-21T18:18:27.807Z,55.66
2019-05-21T18:20:59.056Z,55.66
2019-05-21T18:23:30.413Z,55.88
2019-05-21T18:26:02.575Z,56.24
2019-05-21T18:28:33.814Z,56.36
2019-05-21T18:31:06.536Z,56.75
2019-05-21T18:33:41.122Z,56.95
2019-05-21T18:36:12.408Z,57.10
2019-05-21T18:38:43.823Z,57.13
2019-05-21T18:41:15.173Z,57.58
2019-05-21T18:43:50.115Z,58.24
2019-05-21T18:46:20.647Z,58.33
2019-05-21T18:48:52.298Z,58.96
2019-05-21T18:51:23.755Z,58.99
2019-05-21T18:53:55.923Z,59.09
2019-05-21T18:56:27.465Z,59.51
2019-05-21T18:58:58.814Z,59.98
2019-05-21T19:01:30.363Z,60.40
2019-05-21T19:04:02.025Z,60.27
2019-05-21T19:06:33.310Z,60.34
2019-05-21T19:09:06.435Z,60.92
2019-05-21T19:11:38.117Z,61.15
2019-05-21T19:14:09.332Z,61.42
2019-05-21T19:16:42.198Z,61.22
2019-05-21T19:19:13.492Z,61.62
2019-05-21T19:21:45.046Z,61.53
2019-05-21T19:24:16.716Z,61.71
2019-05-21T19:26:48.264Z,61.77
2019-05-21T19:29:23.443Z,62.39
2019-05-21T19:31:55.279Z,62.75
2019-05-21T19:34:26.847Z,62.68
2019-05-21T19:36:58.697Z,62.73
2019-05-21T19:39:33.030Z,62.66
2019-05-21T19:42:04.619Z,62.62
2019-05-21T19:44:37.551Z,62.72
2019-05-21T19:47:09.500Z,62.85
2019-05-21T19:49:40.978Z,63.01
2019-05-21T19:52:12.731Z,63.08
2019-05-21T19:54:44.478Z,63.22
2019-05-21T19:57:16.571Z,63.59
2019-05-21T19:59:48.250Z,63.67
2019-05-21T20:02:20.625Z,63.74
2019-05-21T20:04:51.935Z,64.00
2019-05-21T20:07:24.712Z,64.25
2019-05-21T20:09:56.159Z,63.92
2019-05-21T20:12:27.853Z,64.02
2019-05-21T20:14:59.577Z,63.97
2019-05-21T20:17:31.162Z,64.44
2019-05-21T20:20:02.360Z,64.72
2019-05-21T20:22:34.132Z,64.54
2019-05-21T20:25:08.175Z,64.66
2019-05-21T20:27:40.033Z,64.60
2019-05-21T20:30:13.603Z,64.66
2019-05-21T20:32:46.716Z,64.71
2019-05-21T20:35:18.770Z,64.83
2019-05-21T20:37:51.429Z,64.92
2019-05-21T20:40:23.633Z,64.97
2019-05-21T20:42:55.494Z,64.70
2019-05-21T20:45:27.456Z,64.74
2019-05-21T20:47:58.910Z,64.88
2019-05-21T20:50:30.469Z,63.01
2019-05-21T20:53:02.174Z,62.87
2019-05-21T20:55:34.172Z,64.22
2019-05-21T20:58:05.816Z,65.00
2019-05-21T21:00:43.769Z,65.31
2019-05-21T21:03:15.586Z,64.99
2019-05-21T21:05:47.145Z,64.88
2019-05-21T21:08:19.738Z,63.99
2019-05-21T21:10:51.115Z,63.99
2019-05-21T21:13:22.844Z,63.97
2019-05-21T21:15:55.105Z,63.68
2019-05-21T21:18:26.596Z,63.92
2019-05-21T21:20:58.212Z,63.93
2019-05-21T21:23:31.436Z,63.89
2019-05-21T21:26:04.088Z,63.83
2019-05-21T21:28:35.319Z,63.91
2019-05-21T21:31:07.376Z,63.93
2019-05-21T21:33:39.018Z,63.90
2019-05-21T21:36:10.946Z,63.92
2019-05-21T21:38:42.744Z,63.87
2019-05-21T21:41:14.639Z,63.94
2019-05-21T21:43:46.184Z,63.90
2019-05-21T21:46:18.755Z,64.02
2019-05-21T21:48:50.824Z,64.02
2019-05-21T21:51:22.046Z,63.91
2019-05-21T21:53:53.619Z,63.94
2019-05-21T21:56:24.873Z,63.84
2019-05-21T21:58:56.219Z,63.79
2019-05-21T22:01:35.388Z,63.81
2019-05-21T22:04:07.516Z,63.86
2019-05-21T22:06:39.480Z,63.98
2019-05-21T22:09:12.234Z,64.04
2019-05-21T22:11:44.129Z,64.40
2019-05-21T22:14:16.088Z,64.67
2019-05-21T22:16:51.020Z,64.93
2019-05-21T22:19:20.741Z,65.32
2019-05-21T22:21:52.298Z,65.40
2019-05-21T22:24:24.278Z,65.53
2019-05-21T22:26:55.544Z,65.54
2019-05-21T22:29:27.281Z,66.02
2019-05-21T22:31:58.839Z,66.54
2019-05-21T22:34:30.633Z,66.64
2019-05-21T22:37:02.248Z,66.79
2019-05-21T22:39:34.116Z,66.74
2019-05-21T22:42:06.281Z,66.86
2019-05-21T22:44:38.248Z,67.10
2019-05-21T22:47:09.597Z,67.06
2019-05-21T22:49:40.743Z,67.05
2019-05-21T22:52:12.345Z,67.08
2019-05-21T22:54:43.645Z,67.03
2019-05-21T22:57:14.793Z,66.95
2019-05-21T22:59:46.765Z,66.92
2019-05-21T23:02:19.949Z,67.09
2019-05-21T23:04:52.098Z,67.02
2019-05-21T23:07:23.676Z,67.14
2019-05-21T23:09:55.540Z,67.54
2019-05-21T23:12:27.507Z,67.87
2019-05-21T23:14:59.464Z,68.08
2019-05-21T23:17:32.356Z,68.19
2019-05-21T23:20:14.467Z,68.44
2019-05-21T23:22:49.211Z,68.64
2019-05-21T23:25:22.526Z,68.16
2019-05-21T23:27:54.045Z,67.85
2019-05-21T23:30:26.521Z,68.43
2019-05-21T23:32:57.872Z,68.76
2019-05-21T23:35:29.114Z,69.16
2019-05-21T23:38:01.486Z,68.97
2019-05-21T23:40:34.796Z,69.12
2019-05-21T23:43:07.777Z,69.32
2019-05-21T23:45:39.229Z,69.21
2019-05-21T23:48:12.222Z,69.31
2019-05-21T23:50:44.091Z,69.16
2019-05-21T23:53:15.427Z,68.15
2019-05-21T23:55:47.391Z,68.38
2019-05-21T23:58:18.967Z,68.75
